Norwegian Spirit — C6TQ6 — position and weather

sailwx.info

Track history (hours):
 
Tides and Currents Weather Stations Pressure Air Temp Water Temp Dewpoint Dewpoint Depression Visibility Wind Speed Wind Dir Waves Ship Positions

Norwegian Spirit

Operator: Norwegian Cruise Line

Last reported at 2016-Dec-05 17:29 UTC. Time now 2016-Dec-08 06:01 UTC.
Position N 32°58' E 034°34'.

Type: Passenger vessel. MMSI: 311746000.

Date/timePositionNaut miles runAvg speedWind from/ knotsBaromVisibWave heightAir tempDewpointWater temp
2016-Dec-05 17:29N 32°58' E 034°34'1920.4
2016-Dec-05 16:33N 32°53' E 034°55'5 4.9
2016-Dec-05 15:29N 32°49' E 035°00'0 0.0
2016-Dec-05 14:29N 32°49' E 035°00'0 0.0
2016-Dec-05 13:26N 32°49' E 035°00'0 0.0
2016-Dec-05 12:32N 32°49' E 035°00'0 0.0
2016-Dec-05 11:29N 32°49' E 035°00'0 0.0
2016-Dec-05 10:32N 32°49' E 035°00'0 0.0
2016-Dec-05 09:32N 32°49' E 035°00'0 0.0
2016-Dec-05 08:32N 32°49' E 035°00'0 0.0
2016-Dec-05 07:14N 32°49' E 035°00'0 0.0
2016-Dec-05 06:29N 32°49' E 035°00'0 0.0
2016-Dec-05 05:29N 32°49' E 035°00'0 0.0
2016-Dec-05 04:29N 32°49' E 035°00'0 0.0
2016-Dec-05 03:32N 32°49' E 035°00'0 0.0
2016-Dec-05 02:32N 32°49' E 035°00'0 0.0
2016-Dec-05 01:32N 32°49' E 035°00'0 0.0
2016-Dec-05 00:32N 32°49' E 035°00'0 0.0
2016-Dec-04 23:32N 32°49' E 035°00'0 0.0
2016-Dec-04 22:32N 32°49' E 035°00'0 0.0
2016-Dec-04 21:29N 32°49' E 035°00'0 0.0
2016-Dec-04 20:26N 32°49' E 035°00'0 0.0
2016-Dec-04 19:32N 32°49' E 035°00'0 0.0
2016-Dec-04 18:29N 32°49' E 035°00'0 0.0
2016-Dec-04 17:32N 32°49' E 035°00'0 0.0
2016-Dec-04 16:29N 32°49' E 035°00'0 0.0
2016-Dec-04 15:32N 32°49' E 035°00'0 0.0
2016-Dec-04 14:26N 32°49' E 035°00'0 0.0
2016-Dec-04 13:32N 32°49' E 035°00'0 0.0
2016-Dec-04 12:32N 32°49' E 035°00'0 0.0
2016-Dec-04 11:26N 32°49' E 035°00'0 0.0
2016-Dec-04 10:32N 32°49' E 035°00'0 0.0
2016-Dec-04 09:26N 32°49' E 035°00'0 0.0
2016-Dec-04 07:33N 32°49' E 035°00'0 0.0
2016-Dec-04 06:33N 32°49' E 035°00'0 0.0
2016-Dec-04 05:33N 32°49' E 035°00'0 0.0
2016-Dec-04 04:33N 32°49' E 035°00'0 0.2
2016-Dec-04 03:33N 32°49' E 035°00'5 5.4
2016-Dec-04 02:33N 32°53' E 034°56'1212.1
2016-Dec-04 01:33N 32°58' E 034°42'11512.8
2016-Dec-03 16:33N 34°28' E 033°16'1212.5
2016-Dec-03 15:34N 34°37' E 033°06'5 4.4
2016-Dec-03 14:31N 34°39' E 033°01'0 0.0
2016-Dec-03 13:31N 34°39' E 033°01'0 0.0
2016-Dec-03 12:31N 34°39' E 033°01'0 0.0
2016-Dec-03 11:31N 34°39' E 033°01'0 0.0
2016-Dec-03 10:31N 34°39' E 033°01'0 0.0
2016-Dec-03 09:31N 34°39' E 033°01'0 0.0
2016-Dec-03 08:31N 34°39' E 033°01'0 0.0
2016-Dec-03 07:31N 34°39' E 033°01'0 0.0
2016-Dec-03 06:33N 34°39' E 033°01'0 0.2
2016-Dec-03 05:33N 34°39' E 033°01'6 5.7
2016-Dec-03 04:34N 34°34' E 033°05'1212.0
2016-Dec-03 03:33N 34°29' E 032°51'1715.0
2016-Dec-03 02:27N 34°28' E 032°31'45814.4
2016-Dec-01 18:33N 37°23' E 023°48'1717.6
2016-Dec-01 17:33N 37°40' E 023°41'1716.7
2016-Dec-01 16:33N 37°56' E 023°37'1 1.2
2016-Dec-01 15:32N 37°56' E 023°38'0 0.0
2016-Dec-01 14:29N 37°56' E 023°38'0 0.0
2016-Dec-01 13:32N 37°56' E 023°38'0 0.0
2016-Dec-01 12:29N 37°56' E 023°38'0 0.0
2016-Dec-01 11:32N 37°56' E 023°38'0 0.0
2016-Dec-01 10:32N 37°56' E 023°38'0 0.0
2016-Dec-01 09:32N 37°56' E 023°38'0 0.0
2016-Dec-01 08:33N 37°56' E 023°38'0 0.0
2016-Dec-01 07:33N 37°56' E 023°38'0 0.0
2016-Dec-01 06:33N 37°56' E 023°38'2 1.8
2016-Dec-01 05:33N 37°56' E 023°36'8 7.6
2016-Dec-01 04:34N 37°49' E 023°40'1615.6
2016-Dec-01 03:34N 37°34' E 023°45'58612.1
2016-Nov-29 03:07N 44°20' E 014°26'913.6
2016-Nov-29 02:27N 44°14' E 014°18'1412.3
2016-Nov-29 01:21N 44°06' E 014°03'1113.7
2016-Nov-29 00:33N 44°15' E 013°54'1413.8
2016-Nov-28 23:33N 44°26' E 013°44'1413.9
2016-Nov-28 22:33N 44°38' E 013°33'1414.1
2016-Nov-28 21:33N 44°50' E 013°22'1414.2
2016-Nov-28 20:33N 45°02' E 013°11'1414.3
2016-Nov-28 19:34N 45°14' E 013°02'1312.6
2016-Nov-28 18:33N 45°22' E 012°48'1413.7
2016-Nov-28 17:33N 45°24' E 012°28'7 6.8
2016-Nov-28 16:33N 45°26' E 012°19'1 0.5
2016-Nov-28 15:32N 45°26' E 012°18'0 0.0
2016-Nov-28 14:32N 45°26' E 012°18'0 0.0
2016-Nov-28 13:32N 45°26' E 012°18'0 0.0
2016-Nov-28 12:32N 45°26' E 012°18'0 0.0
2016-Nov-28 11:32N 45°26' E 012°18'0 0.0
2016-Nov-28 10:32N 45°26' E 012°18'0 0.0
2016-Nov-28 09:32N 45°26' E 012°18'0 0.0
2016-Nov-28 08:32N 45°26' E 012°18'0 0.0
2016-Nov-28 07:32N 45°26' E 012°18'0 0.0
2016-Nov-28 06:32N 45°26' E 012°18'3 3.0
2016-Nov-28 05:33N 45°25' E 012°22'9 9.5
2016-Nov-28 04:33N 45°22' E 012°35'1312.9
2016-Nov-28 03:33N 45°23' E 012°53'1211.6
2016-Nov-28 02:33N 45°20' E 013°10'1313.2
2016-Nov-28 01:33N 45°08' E 013°14'1313.5
2016-Nov-28 00:33N 44°55' E 013°23'1313.4
2016-Nov-27 23:33N 44°44' E 013°33'1313.0
2016-Nov-27 22:33N 44°33' E 013°43'1312.8
2016-Nov-27 21:33N 44°23' E 013°53'1111.0
2016-Nov-27 20:33N 44°16' E 014°05'1413.6
2016-Nov-27 19:33N 44°21' E 014°23'59712.4
2016-Nov-25 19:23N 37°19' E 023°41'1721.1
2016-Nov-25 18:33N 37°36' E 023°42'2020.1
2016-Nov-25 17:33N 37°56' E 023°37'  
Track history (hours):
 
Tides and Currents Weather Stations Pressure Air Temp Water Temp Dewpoint Dewpoint Depression Visibility Wind Speed Wind Dir Waves Ship Positions

Norwegian Spirit

Operator: Norwegian Cruise Line

Last reported at 2016-Dec-05 17:29 UTC. Time now 2016-Dec-08 06:01 UTC.
Position N 32°58' E 034°34'.

Type: Passenger vessel. MMSI: 311746000.

Date/timePositionNaut miles runAvg speedWind from/ knotsBaromVisibWave heightAir tempDewpointWater temp
2016-Dec-05 17:29N 32°58' E 034°34'1920.4
2016-Dec-05 16:33N 32°53' E 034°55'5 4.9
2016-Dec-05 15:29N 32°49' E 035°00'0 0.0
2016-Dec-05 14:29N 32°49' E 035°00'0 0.0
2016-Dec-05 13:26N 32°49' E 035°00'0 0.0
2016-Dec-05 12:32N 32°49' E 035°00'0 0.0
2016-Dec-05 11:29N 32°49' E 035°00'0 0.0
2016-Dec-05 10:32N 32°49' E 035°00'0 0.0
2016-Dec-05 09:32N 32°49' E 035°00'0 0.0
2016-Dec-05 08:32N 32°49' E 035°00'0 0.0
2016-Dec-05 07:14N 32°49' E 035°00'0 0.0
2016-Dec-05 06:29N 32°49' E 035°00'0 0.0
2016-Dec-05 05:29N 32°49' E 035°00'0 0.0
2016-Dec-05 04:29N 32°49' E 035°00'0 0.0
2016-Dec-05 03:32N 32°49' E 035°00'0 0.0
2016-Dec-05 02:32N 32°49' E 035°00'0 0.0
2016-Dec-05 01:32N 32°49' E 035°00'0 0.0
2016-Dec-05 00:32N 32°49' E 035°00'0 0.0
2016-Dec-04 23:32N 32°49' E 035°00'0 0.0
2016-Dec-04 22:32N 32°49' E 035°00'0 0.0
2016-Dec-04 21:29N 32°49' E 035°00'0 0.0
2016-Dec-04 20:26N 32°49' E 035°00'0 0.0
2016-Dec-04 19:32N 32°49' E 035°00'0 0.0
2016-Dec-04 18:29N 32°49' E 035°00'0 0.0
2016-Dec-04 17:32N 32°49' E 035°00'0 0.0
2016-Dec-04 16:29N 32°49' E 035°00'0 0.0
2016-Dec-04 15:32N 32°49' E 035°00'0 0.0
2016-Dec-04 14:26N 32°49' E 035°00'0 0.0
2016-Dec-04 13:32N 32°49' E 035°00'0 0.0
2016-Dec-04 12:32N 32°49' E 035°00'0 0.0
2016-Dec-04 11:26N 32°49' E 035°00'0 0.0
2016-Dec-04 10:32N 32°49' E 035°00'0 0.0
2016-Dec-04 09:26N 32°49' E 035°00'0 0.0
2016-Dec-04 07:33N 32°49' E 035°00'0 0.0
2016-Dec-04 06:33N 32°49' E 035°00'0 0.0
2016-Dec-04 05:33N 32°49' E 035°00'0 0.0
2016-Dec-04 04:33N 32°49' E 035°00'0 0.2
2016-Dec-04 03:33N 32°49' E 035°00'5 5.4
2016-Dec-04 02:33N 32°53' E 034°56'1212.1
2016-Dec-04 01:33N 32°58' E 034°42'11512.8
2016-Dec-03 16:33N 34°28' E 033°16'1212.5
2016-Dec-03 15:34N 34°37' E 033°06'5 4.4
2016-Dec-03 14:31N 34°39' E 033°01'0 0.0
2016-Dec-03 13:31N 34°39' E 033°01'0 0.0
2016-Dec-03 12:31N 34°39' E 033°01'0 0.0
2016-Dec-03 11:31N 34°39' E 033°01'0 0.0
2016-Dec-03 10:31N 34°39' E 033°01'0 0.0
2016-Dec-03 09:31N 34°39' E 033°01'0 0.0
2016-Dec-03 08:31N 34°39' E 033°01'0 0.0
2016-Dec-03 07:31N 34°39' E 033°01'0 0.0
2016-Dec-03 06:33N 34°39' E 033°01'0 0.2
2016-Dec-03 05:33N 34°39' E 033°01'6 5.7
2016-Dec-03 04:34N 34°34' E 033°05'1212.0
2016-Dec-03 03:33N 34°29' E 032°51'1715.0
2016-Dec-03 02:27N 34°28' E 032°31'45814.4
2016-Dec-01 18:33N 37°23' E 023°48'1717.6
2016-Dec-01 17:33N 37°40' E 023°41'1716.7
2016-Dec-01 16:33N 37°56' E 023°37'1 1.2
2016-Dec-01 15:32N 37°56' E 023°38'0 0.0
2016-Dec-01 14:29N 37°56' E 023°38'0 0.0
2016-Dec-01 13:32N 37°56' E 023°38'0 0.0
2016-Dec-01 12:29N 37°56' E 023°38'0 0.0
2016-Dec-01 11:32N 37°56' E 023°38'0 0.0
2016-Dec-01 10:32N 37°56' E 023°38'0 0.0
2016-Dec-01 09:32N 37°56' E 023°38'0 0.0
2016-Dec-01 08:33N 37°56' E 023°38'0 0.0
2016-Dec-01 07:33N 37°56' E 023°38'0 0.0
2016-Dec-01 06:33N 37°56' E 023°38'2 1.8
2016-Dec-01 05:33N 37°56' E 023°36'8 7.6
2016-Dec-01 04:34N 37°49' E 023°40'1615.6
2016-Dec-01 03:34N 37°34' E 023°45'58612.1
2016-Nov-29 03:07N 44°20' E 014°26'913.6
2016-Nov-29 02:27N 44°14' E 014°18'1412.3
2016-Nov-29 01:21N 44°06' E 014°03'1113.7
2016-Nov-29 00:33N 44°15' E 013°54'1413.8
2016-Nov-28 23:33N 44°26' E 013°44'1413.9
2016-Nov-28 22:33N 44°38' E 013°33'1414.1
2016-Nov-28 21:33N 44°50' E 013°22'1414.2
2016-Nov-28 20:33N 45°02' E 013°11'1414.3
2016-Nov-28 19:34N 45°14' E 013°02'1312.6
2016-Nov-28 18:33N 45°22' E 012°48'1413.7
2016-Nov-28 17:33N 45°24' E 012°28'7 6.8
2016-Nov-28 16:33N 45°26' E 012°19'1 0.5
2016-Nov-28 15:32N 45°26' E 012°18'0 0.0
2016-Nov-28 14:32N 45°26' E 012°18'0 0.0
2016-Nov-28 13:32N 45°26' E 012°18'0 0.0
2016-Nov-28 12:32N 45°26' E 012°18'0 0.0
2016-Nov-28 11:32N 45°26' E 012°18'0 0.0
2016-Nov-28 10:32N 45°26' E 012°18'0 0.0
2016-Nov-28 09:32N 45°26' E 012°18'0 0.0
2016-Nov-28 08:32N 45°26' E 012°18'0 0.0
2016-Nov-28 07:32N 45°26' E 012°18'0 0.0
2016-Nov-28 06:32N 45°26' E 012°18'3 3.0
2016-Nov-28 05:33N 45°25' E 012°22'9 9.5
2016-Nov-28 04:33N 45°22' E 012°35'1312.9
2016-Nov-28 03:33N 45°23' E 012°53'1211.6
2016-Nov-28 02:33N 45°20' E 013°10'1313.2
2016-Nov-28 01:33N 45°08' E 013°14'1313.5
2016-Nov-28 00:33N 44°55' E 013°23'1313.4
2016-Nov-27 23:33N 44°44' E 013°33'1313.0
2016-Nov-27 22:33N 44°33' E 013°43'1312.8
2016-Nov-27 21:33N 44°23' E 013°53'1111.0
2016-Nov-27 20:33N 44°16' E 014°05'1413.6
2016-Nov-27 19:33N 44°21' E 014°23'59712.4
2016-Nov-25 19:23N 37°19' E 023°41'1721.1
2016-Nov-25 18:33N 37°36' E 023°42'2020.1
2016-Nov-25 17:33N 37°56' E 023°37'  

Dump ship's entire track history